createdAt,value
2019-03-23T00:01:27.951Z,105.7
2019-03-23T00:11:26.763Z,106.5
2019-03-23T00:21:26.875Z,98.6
2019-03-23T00:31:26.433Z,89.2
2019-03-23T00:41:28.537Z,68.4
2019-03-23T00:51:27.830Z,71.9
2019-03-23T01:01:26.767Z,73.2
2019-03-23T01:11:26.412Z,71.5
2019-03-23T01:21:27.260Z,68.3
2019-03-23T01:31:27.364Z,62.3
2019-03-23T01:41:26.961Z,75.9
2019-03-23T01:51:26.434Z,90.7
2019-03-23T02:01:27.370Z,92.1
2019-03-23T02:11:27.034Z,116.5
2019-03-23T02:21:27.140Z,148.7
2019-03-23T02:31:27.393Z,174.1
2019-03-23T02:41:27.214Z,270.2
2019-03-23T02:51:27.400Z,185.9
2019-03-23T03:01:27.289Z,110.5
2019-03-23T03:11:28.364Z,76.2
2019-03-23T03:21:27.241Z,144.7
2019-03-23T03:31:26.960Z,107.7
2019-03-23T03:41:26.612Z,218.4
2019-03-23T03:51:28.725Z,154.8
2019-03-23T04:01:26.444Z,183.7
2019-03-23T04:11:27.547Z,147.9
2019-03-23T04:21:26.351Z,133.8
2019-03-23T04:31:27.857Z,203.3
2019-03-23T04:41:27.559Z,101.4
2019-03-23T04:51:27.666Z,101.3
2019-03-23T05:01:27.613Z,119.1
2019-03-23T05:11:27.342Z,219.2
2019-03-23T05:21:27.143Z,95.2
2019-03-23T05:31:26.894Z,112.9
2019-03-23T05:41:27.457Z,173.6
2019-03-23T05:51:27.559Z,147.1
2019-03-23T06:01:28.961Z,106.5
2019-03-23T06:11:26.500Z,96.6
2019-03-23T06:21:27.247Z,71.0
2019-03-23T06:31:27.310Z,60.7
2019-03-23T06:41:27.175Z,64.8
2019-03-23T06:51:26.991Z,53.3
2019-03-23T07:01:26.822Z,78.3
2019-03-23T07:11:26.454Z,133.5
2019-03-23T07:21:27.821Z,105.9
2019-03-23T07:31:26.435Z,88.2
2019-03-23T07:41:27.890Z,88.5
2019-03-23T07:51:28.498Z,89.1
2019-03-23T08:01:27.401Z,79.1
2019-03-23T08:11:27.213Z,102.5
2019-03-23T08:21:27.403Z,74.3
2019-03-23T08:31:27.837Z,62.5
2019-03-23T08:41:28.098Z,71.4
2019-03-23T08:51:26.740Z,62.3
2019-03-23T09:01:27.279Z,67.7
2019-03-23T09:11:27.968Z,69.8
2019-03-23T09:21:26.878Z,64.7
2019-03-23T09:31:26.950Z,71.9
2019-03-23T09:41:26.499Z,59.8
2019-03-23T09:51:30.000Z,59.1
2019-03-23T10:01:26.657Z,53.8
2019-03-23T10:11:27.325Z,59.0
2019-03-23T10:21:28.374Z,66.9
2019-03-23T10:31:27.363Z,65.2
2019-03-23T10:41:27.275Z,63.3
2019-03-23T10:51:27.155Z,66.2
2019-03-23T11:01:27.157Z,62.0
2019-03-23T11:11:27.755Z,56.1
2019-03-23T11:21:27.685Z,51.9
2019-03-23T11:31:28.174Z,48.3
2019-03-23T11:41:27.529Z,46.2
2019-03-23T11:51:26.530Z,40.4
2019-03-23T12:01:27.518Z,37.2
2019-03-23T12:11:27.198Z,38.6
2019-03-23T12:21:26.201Z,33.6
2019-03-23T12:31:28.109Z,29.9
2019-03-23T12:41:25.749Z,31.3
2019-03-23T12:51:26.504Z,27.5
2019-03-23T13:01:27.205Z,26.6
2019-03-23T13:11:36.096Z,23.4
2019-03-23T13:21:26.200Z,22.6
2019-03-23T13:31:27.316Z,20.0
2019-03-23T13:41:26.047Z,21.2
2019-03-23T13:51:25.882Z,25.2
2019-03-23T14:01:27.157Z,22.2
2019-03-23T14:11:26.774Z,19.9
2019-03-23T14:21:27.295Z,17.9
2019-03-23T14:31:28.054Z,16.2
2019-03-23T14:41:27.348Z,19.3
2019-03-23T14:51:27.738Z,21.1
2019-03-23T15:01:27.415Z,18.1
2019-03-23T15:11:27.543Z,18.1
2019-03-23T15:21:25.813Z,19.4
2019-03-23T15:31:26.100Z,20.6
2019-03-23T15:41:26.540Z,19.8
2019-03-23T15:51:26.716Z,17.9
2019-03-23T16:01:27.147Z,18.4
2019-03-23T16:11:25.995Z,21.8
2019-03-23T16:21:28.856Z,22.9
2019-03-23T16:31:25.880Z,20.9
2019-03-23T16:41:27.374Z,20.2
2019-03-23T16:51:33.016Z,21.4
2019-03-23T17:01:26.302Z,22.2
2019-03-23T17:11:27.398Z,20.1
2019-03-23T17:21:27.351Z,19.7
2019-03-23T17:31:26.402Z,24.6
2019-03-23T17:41:27.351Z,28.7
2019-03-23T17:51:27.462Z,27.7
2019-03-23T18:01:26.445Z,27.6
2019-03-23T18:11:27.632Z,38.4
2019-03-23T18:21:26.565Z,40.4
2019-03-23T18:31:27.587Z,51.1
2019-03-23T18:41:27.333Z,49.8
2019-03-23T18:51:27.595Z,77.0
2019-03-23T19:01:26.890Z,138.2
2019-03-23T19:11:25.950Z,116.1
2019-03-23T19:21:29.004Z,259.0
2019-03-23T19:31:25.919Z,241.4
2019-03-23T19:41:26.624Z,249.5
2019-03-23T19:51:26.831Z,364.2
2019-03-23T20:01:26.854Z,336.6
2019-03-23T20:11:26.743Z,280.4
2019-03-23T20:21:27.051Z,325.3
2019-03-23T20:31:27.031Z,285.5
2019-03-23T20:41:26.958Z,278.3
2019-03-23T20:51:26.878Z,261.9
2019-03-23T21:01:27.588Z,254.1
2019-03-23T21:11:28.156Z,240.8
2019-03-23T21:21:27.493Z,232.0
2019-03-23T21:31:37.667Z,201.1
2019-03-23T21:41:27.307Z,185.4
2019-03-23T21:51:27.183Z,211.2
2019-03-23T22:01:27.430Z,188.8
2019-03-23T22:11:29.959Z,179.9
2019-03-23T22:21:26.709Z,190.2
2019-03-23T22:31:28.820Z,191.4
2019-03-23T22:41:27.131Z,188.1
2019-03-23T22:51:26.934Z,186.5
2019-03-23T23:01:27.496Z,205.1
2019-03-23T23:11:27.644Z,239.7
2019-03-23T23:21:28.243Z,191.8
2019-03-23T23:31:28.112Z,180.3
2019-03-23T23:41:28.108Z,167.3
2019-03-23T23:51:26.984Z,161.6
